Time;durP1;ratioP1;P1;durP2;ratioP2;P2;SDS_P1;SDS_P2;PMS_P1;PMS_P2;Temp;Humidity;BMP_temperature;BMP_pressure;BME280_temperature;BME280_humidity;BME280_pressure;Samples;Min_cycle;Max_cycle;Signal;HPM_P1;HPM_P2
2022/01/13 00:00:57;;;;;;;493.23;45.63;;;5.10;99.90;;;;;;6221493;22;20015;-88
2022/01/13 00:03:25;;;;;;;465.77;43.67;;;5.10;99.90;;;;;;6216979;22;20086;-87
2022/01/13 00:05:51;;;;;;;527.17;44.20;;;5.10;99.90;;;;;;6214512;22;20113;-87
2022/01/13 00:08:17;;;;;;;556.67;46.50;;;5.10;99.90;;;;;;6215639;22;20480;-86
2022/01/13 00:10:43;;;;;;;562.30;47.13;;;5.10;99.90;;;;;;6164302;22;20027;-85
2022/01/13 00:13:13;;;;;;;608.53;49.03;;;5.10;99.90;;;;;;6189916;22;20012;-86
2022/01/13 00:16:23;;;;;;;564.00;46.30;;;5.10;99.90;;;;;;6215792;22;20023;-85
2022/01/13 00:18:47;;;;;;;585.60;47.47;;;5.10;99.90;;;;;;6239002;22;20433;-88
2022/01/13 00:21:17;;;;;;;549.08;46.17;;;5.10;99.90;;;;;;6216937;22;20019;-87
2022/01/13 00:24:13;;;;;;;611.83;48.10;;;5.10;99.90;;;;;;6189309;22;20015;-87
2022/01/13 00:26:40;;;;;;;598.92;44.25;;;5.10;99.90;;;;;;6214118;22;20020;-86
2022/01/13 00:29:07;;;;;;;494.80;42.00;;;5.10;99.90;;;;;;6214653;22;20178;-86
2022/01/13 00:31:48;;;;;;;567.03;43.97;;;5.10;99.90;;;;;;6188772;22;20016;-86
2022/01/13 00:34:14;;;;;;;551.83;41.40;;;5.10;99.90;;;;;;6213671;22;20007;-86
2022/01/13 00:36:41;;;;;;;447.40;40.53;;;5.00;99.90;;;;;;6214433;22;20069;-86
2022/01/13 00:39:11;;;;;;;575.92;41.75;;;5.10;99.90;;;;;;6214658;22;20320;-87
2022/01/13 00:41:46;;;;;;;539.97;41.58;;;5.00;99.90;;;;;;6189453;22;20016;-87
2022/01/13 00:44:21;;;;;;;567.13;42.05;;;5.00;99.90;;;;;;6193541;22;20472;-87
2022/01/13 00:46:59;;;;;;;476.27;37.05;;;5.00;99.90;;;;;;6227283;22;20042;-86
2022/01/13 00:50:09;;;;;;;575.40;40.63;;;5.00;99.90;;;;;;6221573;22;20139;-87
2022/01/13 00:53:14;;;;;;;508.98;38.15;;;5.00;99.90;;;;;;6219891;22;20024;-87
2022/01/13 00:58:45;;;;;;;473.10;37.05;;;5.00;99.90;;;;;;6219216;22;20012;-85
2022/01/13 01:01:11;;;;;;;546.22;41.30;;;5.00;99.90;;;;;;6191169;22;20485;-86
2022/01/13 01:03:37;;;;;;;509.35;39.20;;;5.00;99.90;;;;;;6216227;22;20019;-85
2022/01/13 01:06:05;;;;;;;522.72;37.67;;;5.00;99.90;;;;;;6190815;22;20016;-86
2022/01/13 01:08:32;;;;;;;490.58;39.08;;;5.00;99.90;;;;;;6215201;22;20098;-84
2022/01/13 01:11:29;;;;;;;597.83;40.38;;;5.00;99.90;;;;;;6239002;22;20441;-86
2022/01/13 01:43:17;;;;;;;402.65;34.90;;;5.00;99.90;;;;;;6241970;22;20032;-85
2022/01/13 01:50:37;;;;;;;485.50;37.67;;;5.00;99.90;;;;;;5982921;23;20712;-86
2022/01/13 01:53:18;;;;;;;443.20;36.30;;;5.00;99.90;;;;;;5980023;23;20015;-84
2022/01/13 01:55:45;;;;;;;463.95;36.58;;;5.00;99.90;;;;;;5979415;23;20015;-85
2022/01/13 01:58:33;;;;;;;466.92;36.97;;;5.00;99.90;;;;;;5980529;23;20047;-86
2022/01/13 02:01:01;;;;;;;574.28;42.72;;;5.00;99.90;;;;;;5974808;23;20019;-85
2022/01/13 02:03:29;;;;;;;454.77;37.25;;;5.00;99.90;;;;;;6135363;23;20017;-85
2022/01/13 02:05:56;;;;;;;477.15;38.78;;;5.00;99.90;;;;;;6155577;23;20553;-84
2022/01/13 02:09:08;;;;;;;469.95;38.30;;;5.00;99.90;;;;;;6155090;23;20020;-85
2022/01/13 02:18:37;;;;;;;420.02;36.67;;;5.10;99.90;;;;;;6200409;23;20040;-84
2022/01/13 02:21:15;;;;;;;479.67;38.15;;;5.10;99.90;;;;;;6153624;23;20051;-84
2022/01/13 02:24:02;;;;;;;383.52;35.97;;;5.10;99.90;;;;;;6154914;23;20357;-85
2022/01/13 02:26:40;;;;;;;358.38;35.88;;;5.10;99.90;;;;;;6151864;23;20051;-83
2022/01/13 02:29:10;;;;;;;452.83;38.22;;;5.10;99.90;;;;;;6154851;23;20023;-83
2022/01/13 02:31:39;;;;;;;399.70;36.90;;;5.20;99.90;;;;;;6155294;23;20016;-85
2022/01/13 02:34:28;;;;;;;472.90;40.40;;;5.10;99.90;;;;;;6130230;23;20296;-83
2022/01/13 02:36:57;;;;;;;383.35;36.47;;;5.10;99.90;;;;;;6156798;23;20087;-84
2022/01/13 02:39:32;;;;;;;430.55;37.88;;;5.20;99.90;;;;;;6154730;23;20020;-84
2022/01/13 02:42:32;;;;;;;462.08;38.33;;;5.10;99.90;;;;;;6154807;23;20361;-83
2022/01/13 02:45:26;;;;;;;463.75;37.50;;;5.10;99.90;;;;;;6003107;23;20090;-84
2022/01/13 02:51:20;;;;;;;431.40;38.72;;;5.10;99.90;;;;;;6180853;23;20012;-84
2022/01/13 02:53:58;;;;;;;299.40;32.17;;;5.00;99.90;;;;;;6155502;23;20020;-84
2022/01/13 02:56:54;;;;;;;268.45;31.67;;;5.10;99.90;;;;;;6154516;23;20012;-84
2022/01/13 02:59:24;;;;;;;306.15;34.10;;;5.00;99.90;;;;;;6155470;23;20226;-84
2022/01/13 03:02:19;;;;;;;384.40;35.83;;;5.00;99.90;;;;;;6153789;23;20074;-84
2022/01/13 03:04:51;;;;;;;247.70;34.22;;;5.00;99.90;;;;;;6133012;23;20036;-84
2022/01/13 03:07:34;;;;;;;377.63;36.47;;;5.00;99.90;;;;;;6155103;23;20023;-84
2022/01/13 03:10:29;;;;;;;288.40;34.15;;;5.10;99.90;;;;;;6177856;23;20189;-84
2022/01/13 03:13:05;;;;;;;223.32;33.17;;;5.00;99.90;;;;;;6147870;23;20016;-85
2022/01/13 03:15:42;;;;;;;;;;;;;;;;;;;;;
2022/01/13 03:18:51;;;;;;;366.20;36.85;;;5.10;99.90;;;;;;6190199;23;20115;-85
2022/01/13 03:21:23;;;;;;;401.55;38.35;;;5.10;99.90;;;;;;6183634;23;20018;-85
2022/01/13 03:24:06;;;;;;;316.67;34.60;;;5.10;99.90;;;;;;6160609;23;20107;-83
2022/01/13 03:26:53;;;;;;;364.05;36.33;;;5.10;99.90;;;;;;6156473;23;20035;-84
2022/01/13 03:30:18;;;;;;;303.90;32.38;;;5.10;99.90;;;;;;6052901;23;20051;-83
2022/01/13 03:32:53;;;;;;;345.67;34.60;;;5.10;99.90;;;;;;6060902;23;20026;-83
2022/01/13 03:36:03;;;;;;;313.70;34.15;;;5.10;99.90;;;;;;6128899;23;20020;-83
2022/01/13 03:38:32;;;;;;;;;;;5.10;99.90;;;;;;6128334;23;20020;-84
2022/01/13 03:41:11;;;;;;;344.80;33.03;;;5.10;99.90;;;;;;6155495;23;19912;-84
2022/01/13 03:43:57;;;;;;;352.48;34.90;;;5.10;99.90;;;;;;6154710;23;20016;-83
2022/01/13 03:49:55;;;;;;;339.65;33.50;;;5.10;99.90;;;;;;6161454;23;20016;-84
2022/01/13 03:53:18;;;;;;;446.70;38.00;;;5.00;99.90;;;;;;6130052;23;20602;-84
2022/01/13 03:58:58;;;;;;;405.85;35.47;;;5.00;99.90;;;;;;6266155;22;20019;-83
2022/01/13 04:02:14;;;;;;;402.45;35.17;;;5.00;99.90;;;;;;6217723;22;20030;-83
2022/01/13 04:05:35;;;;;;;480.02;37.47;;;5.00;99.90;;;;;;6251742;22;20095;-84
2022/01/13 04:08:07;;;;;;;458.08;36.10;;;5.00;99.90;;;;;;6194547;22;20020;-83
2022/01/13 04:14:42;;;;;;;370.55;36.42;;;5.00;99.90;;;;;;6223770;22;20094;-84
2022/01/13 04:18:25;;;;;;;483.55;37.90;;;5.00;99.90;;;;;;6191764;22;20011;-85
2022/01/13 04:21:42;;;;;;;;;;;;;;;;;;;;;
2022/01/13 04:24:11;;;;;;;380.98;35.70;;;5.00;99.90;;;;;;6239261;22;20073;-83
2022/01/13 04:27:36;;;;;;;466.75;40.92;;;5.00;99.90;;;;;;6239927;22;20019;-84
2022/01/13 04:32:59;;;;;;;369.77;33.72;;;5.00;99.90;;;;;;6177695;23;20020;-83
2022/01/13 04:36:11;;;;;;;437.50;36.33;;;5.00;99.90;;;;;;6153365;23;20016;-83
2022/01/13 04:38:52;;;;;;;471.67;38.05;;;4.90;99.90;;;;;;6157142;23;20016;-83
2022/01/13 04:41:48;;;;;;;498.48;37.40;;;5.00;99.90;;;;;;6130833;23;20051;-85
2022/01/13 04:44:35;;;;;;;470.40;37.72;;;4.90;99.90;;;;;;6108741;23;20028;-85
2022/01/13 04:47:07;;;;;;;422.17;36.60;;;4.90;99.90;;;;;;6154309;23;20075;-84
2022/01/13 04:49:53;;;;;;;421.10;35.00;;;4.90;99.90;;;;;;6129971;23;20115;-83
2022/01/13 04:52:41;;;;;;;432.13;38.05;;;5.00;99.90;;;;;;6158770;23;20699;-84
2022/01/13 04:55:11;;;;;;;432.33;38.50;;;4.90;99.90;;;;;;6106301;23;20015;-83
2022/01/13 04:57:59;;;;;;;453.80;38.33;;;4.90;99.90;;;;;;6128244;23;20099;-84
2022/01/13 05:00:35;;;;;;;390.35;35.17;;;4.90;99.90;;;;;;6190515;22;20047;-84
2022/01/13 05:03:15;;;;;;;412.88;35.85;;;4.90;99.90;;;;;;6240325;22;20399;-85
2022/01/13 05:05:59;;;;;;;409.38;34.42;;;4.90;99.90;;;;;;6239817;22;20016;-85
2022/01/13 05:08:31;;;;;;;419.33;35.53;;;4.90;99.90;;;;;;6238557;22;20050;-86
2022/01/13 05:11:03;;;;;;;441.30;38.17;;;4.90;99.90;;;;;;6238318;22;20031;-84
2022/01/13 05:13:45;;;;;;;388.75;34.58;;;4.90;99.90;;;;;;6214240;22;20015;-84
2022/01/13 05:16:28;;;;;;;394.33;35.25;;;4.90;99.90;;;;;;6238715;22;20318;-85
2022/01/13 05:24:20;;;;;;;369.65;33.42;;;4.80;99.90;;;;;;6241063;22;20015;-84
2022/01/13 05:26:51;;;;;;;381.13;34.55;;;4.80;99.90;;;;;;6238501;22;20102;-82
2022/01/13 05:30:01;;;;;;;389.85;35.50;;;4.80;99.90;;;;;;6216239;22;20161;-83
2022/01/13 05:32:37;;;;;;;320.35;33.70;;;4.80;99.90;;;;;;6185002;22;20058;-83
2022/01/13 05:35:07;;;;;;;350.75;33.35;;;4.80;99.90;;;;;;6241416;22;20090;-85
2022/01/13 05:37:34;;;;;;;321.38;33.72;;;4.80;99.90;;;;;;6264761;22;20016;-84
2022/01/13 05:40:00;;;;;;;408.50;35.30;;;4.80;99.90;;;;;;6244450;22;20372;-83
2022/01/13 05:42:42;;;;;;;370.98;34.78;;;4.80;99.90;;;;;;6239464;22;20011;-83
2022/01/13 05:45:23;;;;;;;333.38;32.92;;;4.80;99.90;;;;;;6238474;22;20012;-83
2022/01/13 05:48:00;;;;;;;367.95;35.53;;;4.80;99.90;;;;;;6237863;22;20457;-84
2022/01/13 05:50:54;;;;;;;348.75;35.10;;;4.80;99.90;;;;;;6244395;22;20016;-85
2022/01/13 05:53:21;;;;;;;425.27;39.63;;;4.80;99.90;;;;;;6242715;22;20012;-85
2022/01/13 05:55:47;;;;;;;412.10;36.05;;;4.80;99.90;;;;;;6242171;22;20027;-84
2022/01/13 05:58:29;;;;;;;355.88;34.45;;;4.80;99.90;;;;;;6242458;22;20007;-82
2022/01/13 06:01:10;;;;;;;383.00;35.42;;;4.80;99.90;;;;;;6240490;22;20015;-84
2022/01/13 06:03:39;;;;;;;400.65;35.85;;;4.80;99.90;;;;;;6242244;22;20023;-83
2022/01/13 06:06:05;;;;;;;386.75;36.60;;;4.70;99.90;;;;;;6251157;22;20011;-83
2022/01/13 06:09:20;;;;;;;437.17;40.58;;;4.80;99.90;;;;;;6228326;22;20043;-84
2022/01/13 06:12:09;;;;;;;466.95;41.10;;;4.80;99.90;;;;;;6221701;22;20435;-84
2022/01/13 06:14:44;;;;;;;450.13;38.75;;;4.80;99.90;;;;;;6277133;22;20016;-84
2022/01/13 06:17:15;;;;;;;433.45;38.83;;;4.80;99.90;;;;;;6219398;22;20238;-83
2022/01/13 06:19:41;;;;;;;398.55;38.28;;;4.80;99.90;;;;;;6244860;22;20034;-82
2022/01/13 06:22:25;;;;;;;382.50;37.03;;;4.80;99.90;;;;;;6240603;22;20514;-85
2022/01/13 06:24:56;;;;;;;313.35;34.03;;;4.70;99.90;;;;;;6215491;22;20414;-83
2022/01/13 06:27:46;;;;;;;266.38;33.10;;;4.80;99.90;;;;;;6236702;22;20015;-84
2022/01/13 06:30:18;;;;;;;272.40;32.28;;;4.80;99.90;;;;;;6238474;22;20019;-84
2022/01/13 06:33:00;;;;;;;303.95;33.58;;;4.80;99.90;;;;;;6239153;22;20107;-83
2022/01/13 06:35:29;;;;;;;297.13;34.97;;;4.80;99.90;;;;;;6238001;22;20077;-84
2022/01/13 06:38:03;;;;;;;338.07;35.87;;;4.80;99.90;;;;;;6214378;22;20020;-83
2022/01/13 06:40:34;;;;;;;274.63;33.45;;;4.80;99.90;;;;;;6237097;22;20090;-82
2022/01/13 06:43:04;;;;;;;282.08;33.95;;;4.70;99.90;;;;;;6240122;22;20069;-84
2022/01/13 06:45:30;;;;;;;259.35;33.83;;;4.70;99.90;;;;;;6237717;22;20352;-84
2022/01/13 06:48:02;;;;;;;279.08;30.98;;;4.70;99.90;;;;;;6239018;22;20022;-84
2022/01/13 06:50:28;;;;;;;287.90;33.83;;;4.70;99.90;;;;;;6212413;22;20465;-84
2022/01/13 06:52:54;;;;;;;266.08;32.13;;;4.70;99.90;;;;;;6236569;22;20012;-84
2022/01/13 06:55:20;;;;;;;249.48;32.67;;;4.70;99.90;;;;;;6240673;22;20086;-84
2022/01/13 06:57:46;;;;;;;272.58;32.53;;;4.70;99.90;;;;;;6238250;22;20460;-84
2022/01/13 07:00:12;;;;;;;341.70;35.65;;;4.70;99.90;;;;;;6209216;22;20011;-84
2022/01/13 07:02:47;;;;;;;307.23;34.67;;;4.70;99.90;;;;;;6234806;22;20193;-84
2022/01/13 07:05:18;;;;;;;285.92;33.47;;;4.70;99.90;;;;;;6241315;22;20926;-84
2022/01/13 07:07:47;;;;;;;255.65;33.60;;;4.70;99.90;;;;;;6238253;22;20066;-85
2022/01/13 07:10:13;;;;;;;292.13;34.42;;;4.80;99.90;;;;;;6241325;22;20019;-84
2022/01/13 07:12:42;;;;;;;309.20;34.50;;;4.80;99.90;;;;;;6239489;22;20059;-83
2022/01/13 07:15:09;;;;;;;316.48;34.92;;;4.80;99.90;;;;;;6238501;22;20011;-84
2022/01/13 07:17:35;;;;;;;307.58;35.30;;;4.80;99.90;;;;;;6241970;22;20035;-84
2022/01/13 07:20:01;;;;;;;288.27;36.13;;;4.80;99.90;;;;;;6240345;22;20046;-85
2022/01/13 07:22:27;;;;;;;337.55;37.92;;;4.80;99.90;;;;;;6241503;22;20047;-84
2022/01/13 07:24:53;;;;;;;314.30;35.92;;;4.80;99.90;;;;;;6223135;22;20015;-84
2022/01/13 07:27:22;;;;;;;271.30;35.92;;;4.80;99.90;;;;;;6251213;22;20018;-85
2022/01/13 07:30:10;;;;;;;444.75;40.30;;;4.90;99.90;;;;;;6242061;22;20022;-85
2022/01/13 07:33:34;;;;;;;331.83;37.38;;;4.90;99.90;;;;;;6241863;22;20020;-85
2022/01/13 07:36:00;;;;;;;260.85;31.13;;;4.90;99.90;;;;;;6215655;22;20043;-85
2022/01/13 07:38:26;;;;;;;336.10;33.47;;;4.90;99.90;;;;;;6241687;22;20012;-86
2022/01/13 07:40:52;;;;;;;348.02;35.50;;;4.90;99.90;;;;;;6239259;22;20024;-85
2022/01/13 07:43:26;;;;;;;353.10;33.45;;;4.90;99.90;;;;;;6241447;22;20133;-84
2022/01/13 07:46:14;;;;;;;348.10;33.38;;;4.90;99.90;;;;;;6241916;22;20019;-84
2022/01/13 07:48:46;;;;;;;307.67;31.10;;;4.90;99.90;;;;;;6240512;22;20011;-84
2022/01/13 07:51:12;;;;;;;346.20;33.53;;;4.80;99.90;;;;;;6215074;22;20058;-85
2022/01/13 07:53:37;;;;;;;347.00;33.63;;;4.80;99.90;;;;;;6238951;22;20008;-85
2022/01/13 07:56:04;;;;;;;402.90;34.33;;;4.90;99.90;;;;;;6239129;22;20081;-84
2022/01/13 07:58:30;;;;;;;383.98;33.38;;;4.80;99.90;;;;;;6214112;22;20020;-85
2022/01/13 08:00:56;;;;;;;332.45;32.38;;;4.80;99.90;;;;;;6239647;22;20011;-85
2022/01/13 08:03:26;;;;;;;351.50;33.83;;;4.90;99.90;;;;;;6207704;22;20297;-83
2022/01/13 08:05:58;;;;;;;304.80;32.00;;;4.80;99.90;;;;;;6240070;22;20016;-83
2022/01/13 08:08:30;;;;;;;352.40;33.40;;;4.80;99.90;;;;;;6241058;22;20011;-84
2022/01/13 08:11:00;;;;;;;346.63;32.22;;;4.90;99.90;;;;;;6240199;22;20016;-84
2022/01/13 08:13:39;;;;;;;300.45;31.48;;;4.90;99.90;;;;;;6237904;22;20084;-85
2022/01/13 08:16:19;;;;;;;304.60;32.47;;;4.90;99.90;;;;;;6240316;22;20174;-85
2022/01/13 08:21:47;;;;;;;279.80;31.38;;;4.90;99.90;;;;;;6238404;22;20038;-85
2022/01/13 08:24:13;;;;;;;317.02;33.05;;;4.90;99.90;;;;;;6237773;22;20022;-85
2022/01/13 08:26:43;;;;;;;369.52;35.13;;;4.90;99.90;;;;;;6206745;22;20051;-86
2022/01/13 08:29:09;;;;;;;294.85;34.22;;;4.90;99.90;;;;;;6237892;22;20016;-86
2022/01/13 08:31:35;;;;;;;289.45;32.13;;;4.90;99.90;;;;;;6212828;22;20024;-85
2022/01/13 08:34:01;;;;;;;284.70;31.17;;;5.00;99.90;;;;;;6239222;22;20012;-86
2022/01/13 08:36:29;;;;;;;310.05;32.38;;;5.00;99.90;;;;;;6239418;22;20464;-86
2022/01/13 08:38:55;;;;;;;315.98;34.10;;;5.00;99.90;;;;;;6238919;22;20121;-86
2022/01/13 08:41:24;;;;;;;264.35;31.92;;;5.00;99.90;;;;;;6211956;22;20362;-86
2022/01/13 08:43:53;;;;;;;270.42;32.17;;;5.00;99.90;;;;;;6237799;22;20103;-87
2022/01/13 08:46:19;;;;;;;281.75;32.28;;;5.00;99.90;;;;;;6236784;22;20016;-86
2022/01/13 08:48:45;;;;;;;232.13;36.67;;;5.00;99.90;;;;;;6238937;22;20479;-86
2022/01/13 08:51:17;;;;;;;295.58;32.50;;;5.00;99.90;;;;;;6235623;22;20476;-84
2022/01/13 08:53:43;;;;;;;264.25;32.83;;;5.10;99.90;;;;;;6211565;22;20012;-86
2022/01/13 08:56:45;;;;;;;312.67;32.55;;;5.10;99.90;;;;;;6237999;22;20062;-85
2022/01/13 08:59:22;;;;;;;284.05;33.53;;;5.10;99.90;;;;;;6204294;22;20015;-84
2022/01/13 09:02:13;;;;;;;294.45;34.72;;;5.10;99.90;;;;;;6237572;22;20020;-85
2022/01/13 09:04:42;;;;;;;305.05;34.50;;;5.10;99.90;;;;;;6214167;22;20086;-86
2022/01/13 09:07:17;;;;;;;324.20;35.88;;;5.20;99.90;;;;;;6238666;22;20027;-85
2022/01/13 09:09:52;;;;;;;296.75;36.05;;;5.20;99.90;;;;;;6238352;22;20019;-85
2022/01/13 09:12:54;;;;;;;375.50;37.45;;;5.20;99.90;;;;;;6236541;22;20020;-86
2022/01/13 09:15:58;;;;;;;352.88;36.75;;;5.20;99.90;;;;;;6238568;22;20535;-86
2022/01/13 09:18:58;;;;;;;354.02;37.63;;;5.20;99.90;;;;;;6211275;22;20082;-84
2022/01/13 09:22:21;;;;;;;315.10;36.53;;;5.20;99.90;;;;;;6230824;23;20031;-86
2022/01/13 09:26:13;;;;;;;371.70;37.83;;;5.20;99.90;;;;;;6179055;23;20467;-85
2022/01/13 09:29:20;;;;;;;;;;;;;;;;;;;;;
2022/01/13 09:32:30;;;;;;;261.17;32.97;;;5.30;99.90;;;;;;6202772;23;19923;-85
2022/01/13 09:35:21;;;;;;;386.70;37.40;;;5.30;99.90;;;;;;6175109;23;20024;-86
2022/01/13 09:37:49;;;;;;;;;;;5.30;99.90;;;;;;6177604;23;20013;-85
2022/01/13 09:40:16;;;;;;;363.63;36.35;;;5.30;99.90;;;;;;6176427;23;19916;-85
2022/01/13 09:42:44;;;;;;;272.88;33.40;;;5.30;99.90;;;;;;6175681;23;20016;-85
2022/01/13 09:45:18;;;;;;;383.88;37.13;;;5.30;99.90;;;;;;6175272;23;20012;-86
2022/01/13 09:47:50;;;;;;;336.73;36.63;;;5.40;99.90;;;;;;6216690;23;20408;-84
2022/01/13 09:50:20;;;;;;;371.48;37.92;;;5.30;99.90;;;;;;6201744;23;20008;-85
2022/01/13 09:53:01;;;;;;;348.80;37.08;;;5.30;99.90;;;;;;6183697;23;20099;-86
2022/01/13 09:55:49;;;;;;;340.33;36.17;;;5.40;99.90;;;;;;6207206;23;20023;-85
2022/01/13 09:58:48;;;;;;;383.80;38.35;;;5.40;99.90;;;;;;6206485;23;20017;-84
2022/01/13 10:01:26;;;;;;;428.88;38.60;;;5.50;99.90;;;;;;6181512;23;20016;-86
2022/01/13 10:03:52;;;;;;;423.17;40.30;;;5.40;99.90;;;;;;6205434;23;20078;-85
2022/01/13 10:06:20;;;;;;;346.85;37.38;;;5.40;99.90;;;;;;6205271;23;20103;-87
2022/01/13 10:09:04;;;;;;;359.73;37.70;;;5.40;99.90;;;;;;6179703;23;20106;-85
2022/01/13 10:11:41;;;;;;;336.73;36.92;;;5.50;99.90;;;;;;6178432;23;20009;-85
2022/01/13 10:16:23;;;;;;;392.13;39.40;;;5.50;99.90;;;;;;6177413;23;20016;-87
2022/01/13 10:17:07;;;;;;;326.92;37.80;;;5.50;99.90;;;;;;6205453;23;20031;-86
2022/01/13 10:19:34;;;;;;;301.20;34.28;;;5.50;99.90;;;;;;6176201;23;20016;-86
2022/01/13 10:22:20;;;;;;;319.30;36.40;;;5.50;99.90;;;;;;6177798;23;20633;-86
2022/01/13 10:25:29;;;;;;;364.67;38.72;;;5.60;99.90;;;;;;6178607;23;20687;-85
2022/01/13 10:28:41;;;;;;;278.37;35.90;;;5.60;99.90;;;;;;6180016;23;20019;-86
2022/01/13 10:31:13;;;;;;;254.13;34.97;;;5.60;99.90;;;;;;6177280;23;20519;-86
2022/01/13 10:33:39;;;;;;;255.77;34.30;;;5.60;99.90;;;;;;6201310;23;20067;-85
2022/01/13 10:36:11;;;;;;;248.77;35.75;;;5.70;99.90;;;;;;6176112;23;20073;-83
2022/01/13 10:38:58;;;;;;;251.13;34.47;;;5.70;99.90;;;;;;6170435;23;20028;-84
2022/01/13 10:42:02;;;;;;;254.23;35.78;;;5.70;99.90;;;;;;6176949;23;20020;-85
2022/01/13 10:44:22;;;;;;;264.55;36.13;;;5.70;99.90;;;;;;6209537;23;20102;-86
2022/01/13 10:47:03;;;;;;;240.38;34.97;;;5.80;99.90;;;;;;6186899;23;20217;-86
2022/01/13 10:50:02;;;;;;;252.27;37.33;;;5.80;99.90;;;;;;6180469;23;20020;-86
2022/01/13 10:52:29;;;;;;;233.18;33.30;;;5.80;99.90;;;;;;6162587;23;20075;-87
2022/01/13 10:55:08;;;;;;;196.32;32.67;;;5.80;99.90;;;;;;6179181;23;20081;-85
2022/01/13 10:57:36;;;;;;;228.73;34.47;;;5.90;99.90;;;;;;6180938;23;20705;-87
2022/01/13 11:00:17;;;;;;;241.25;35.28;;;5.80;99.90;;;;;;6179243;23;20174;-85
2022/01/13 11:03:05;;;;;;;244.60;33.40;;;5.90;99.90;;;;;;6181499;23;20028;-86
2022/01/13 11:05:34;;;;;;;202.73;34.35;;;5.90;99.90;;;;;;6179317;23;20020;-85
2022/01/13 11:08:11;;;;;;;274.63;35.60;;;5.90;99.90;;;;;;6179393;23;20013;-84
2022/01/13 11:10:48;;;;;;;187.52;33.22;;;5.90;99.90;;;;;;6176962;23;20024;-84
2022/01/13 11:13:24;;;;;;;196.98;32.40;;;6.00;99.90;;;;;;6177433;23;20088;-86
2022/01/13 11:15:55;;;;;;;208.35;31.65;;;6.00;99.90;;;;;;6179941;23;20024;-83
2022/01/13 11:18:34;;;;;;;212.63;32.15;;;6.00;99.90;;;;;;6205474;23;20503;-82
2022/01/13 11:21:02;;;;;;;197.00;32.67;;;6.00;99.90;;;;;;6178279;23;20020;-84
2022/01/13 11:23:37;;;;;;;225.70;33.28;;;6.00;99.90;;;;;;6175948;23;20055;-83
2022/01/13 11:26:05;;;;;;;217.80;33.90;;;6.00;99.90;;;;;;6178289;23;20020;-85
2022/01/13 11:28:34;;;;;;;159.32;31.35;;;6.00;99.90;;;;;;6180272;23;20043;-85
2022/01/13 11:31:03;;;;;;;164.85;31.80;;;6.00;99.90;;;;;;6180548;23;20076;-83
2022/01/13 11:33:29;;;;;;;163.82;31.33;;;6.10;99.90;;;;;;6182085;23;20464;-85
2022/01/13 11:35:57;;;;;;;152.55;29.80;;;6.10;99.90;;;;;;6182115;23;20012;-84
2022/01/13 11:38:28;;;;;;;145.77;30.88;;;6.10;99.90;;;;;;6182333;23;20013;-84
2022/01/13 11:41:19;;;;;;;135.75;29.25;;;6.10;99.90;;;;;;6179429;23;20496;-84
2022/01/13 11:43:50;;;;;;;159.98;30.45;;;6.10;99.90;;;;;;6183301;23;20047;-87
2022/01/13 11:46:27;;;;;;;144.65;29.27;;;6.00;99.90;;;;;;6185032;23;20385;-86
2022/01/13 11:49:06;;;;;;;141.38;29.27;;;6.10;99.90;;;;;;6205623;23;20078;-87
2022/01/13 11:52:12;;;;;;;158.77;31.13;;;6.10;99.90;;;;;;6203920;23;20024;-85
2022/01/13 11:54:45;;;;;;;140.07;29.13;;;6.00;99.90;;;;;;6178914;23;20019;-87
2022/01/13 11:57:38;;;;;;;149.88;32.42;;;6.00;99.90;;;;;;6179823;23;20012;-86
2022/01/13 12:00:29;;;;;;;164.75;31.60;;;6.00;99.90;;;;;;6180017;23;20016;-86
2022/01/13 12:02:59;;;;;;;145.38;30.52;;;6.00;99.90;;;;;;6180740;23;20023;-87
2022/01/13 12:05:29;;;;;;;158.63;31.98;;;6.00;99.90;;;;;;6181100;23;20501;-85
2022/01/13 12:08:03;;;;;;;166.73;32.50;;;6.00;99.90;;;;;;6181324;23;20325;-85
2022/01/13 12:10:50;;;;;;;166.20;31.73;;;6.00;99.90;;;;;;6178604;23;20055;-85
2022/01/13 12:13:31;;;;;;;135.40;29.13;;;6.00;99.90;;;;;;6180562;23;20009;-86
2022/01/13 12:16:10;;;;;;;141.88;33.03;;;6.10;99.90;;;;;;6182721;23;20009;-86
2022/01/13 12:21:59;;;;;;;186.40;33.42;;;6.00;99.90;;;;;;6183216;23;20017;-84
2022/01/13 12:24:53;;;;;;;179.95;31.85;;;6.10;99.90;;;;;;6180202;23;20024;-84
2022/01/13 12:27:40;;;;;;;164.70;32.38;;;6.00;99.90;;;;;;6181871;23;20024;-86
2022/01/13 12:30:18;;;;;;;155.85;32.53;;;6.10;99.90;;;;;;6182637;23;20021;-84
2022/01/13 12:32:50;;;;;;;182.88;32.42;;;6.10;99.90;;;;;;6183237;23;20016;-85
2022/01/13 12:35:30;;;;;;;195.95;33.60;;;6.10;99.90;;;;;;6180904;23;20009;-85
2022/01/13 12:38:17;;;;;;;178.27;32.35;;;6.10;99.90;;;;;;6187277;23;20078;-86
2022/01/13 12:40:50;;;;;;;218.63;35.50;;;6.10;99.90;;;;;;6193214;23;20020;-84
2022/01/13 12:46:27;;;;;;;221.60;36.97;;;6.10;99.90;;;;;;6219104;23;20411;-85
2022/01/13 12:48:58;;;;;;;227.77;36.67;;;6.10;99.90;;;;;;6194403;23;20505;-84
2022/01/13 12:51:29;;;;;;;261.67;36.75;;;6.10;99.90;;;;;;6184235;23;20740;-84
2022/01/13 12:54:00;;;;;;;229.43;35.17;;;6.10;99.90;;;;;;6177798;23;20380;-83
2022/01/13 12:56:29;;;;;;;236.98;36.05;;;6.10;99.90;;;;;;6181714;23;20040;-85
2022/01/13 12:59:06;;;;;;;226.25;37.38;;;6.10;99.90;;;;;;6182804;23;20009;-86
2022/01/13 13:01:37;;;;;;;242.30;38.80;;;6.10;99.90;;;;;;6181911;23;20059;-86
2022/01/13 13:06:54;;;;;;;263.77;40.25;;;6.10;99.90;;;;;;6240799;22;20479;-83
2022/01/13 13:09:45;;;;;;;286.77;43.22;;;6.10;99.90;;;;;;6188267;23;20030;-85
2022/01/13 13:12:26;;;;;;;291.17;41.67;;;6.20;99.90;;;;;;6165135;23;20027;-86
2022/01/13 13:20:51;;;;;;;330.90;42.72;;;6.20;99.90;;;;;;6194041;23;20022;-86
2022/01/13 13:23:35;;;;;;;245.05;42.65;;;6.30;99.90;;;;;;6185671;23;20019;-85
2022/01/13 13:26:18;;;;;;;272.88;43.17;;;6.20;99.90;;;;;;6184952;23;20070;-87
2022/01/13 13:28:53;;;;;;;272.75;44.30;;;6.20;99.90;;;;;;6215280;23;20173;-86
2022/01/13 13:31:40;;;;;;;205.65;41.40;;;6.30;99.90;;;;;;6159611;23;20016;-87
2022/01/13 13:34:20;;;;;;;293.38;44.92;;;6.30;99.90;;;;;;6186460;22;20019;-86
2022/01/13 13:36:51;;;;;;;245.30;45.75;;;6.30;99.90;;;;;;6185815;23;20020;-86
2022/01/13 13:39:25;;;;;;;242.23;42.60;;;6.40;99.90;;;;;;6210958;23;20053;-87
2022/01/13 13:42:01;;;;;;;270.98;44.60;;;6.30;99.90;;;;;;6183041;23;20012;-87
2022/01/13 13:44:34;;;;;;;276.92;46.42;;;6.30;99.90;;;;;;6181197;23;20016;-87
2022/01/13 13:47:03;;;;;;;229.05;46.35;;;6.40;99.90;;;;;;6184215;23;20223;-87
2022/01/13 13:49:38;;;;;;;191.25;44.70;;;6.40;99.90;;;;;;6185102;23;20019;-85
2022/01/13 13:52:10;;;;;;;190.25;44.85;;;6.40;99.90;;;;;;6210088;23;20012;-87
2022/01/13 13:54:56;;;;;;;232.25;46.95;;;6.40;99.90;;;;;;6184695;23;20534;-88
2022/01/13 13:57:33;;;;;;;228.73;47.13;;;6.40;99.90;;;;;;6185745;23;20023;-88
2022/01/13 14:00:19;;;;;;;189.93;43.60;;;6.40;99.90;;;;;;6185831;23;20019;-87
2022/01/13 14:02:50;;;;;;;174.23;44.85;;;6.50;99.90;;;;;;6186145;23;20018;-85
2022/01/13 14:05:21;;;;;;;172.20;46.25;;;6.50;99.90;;;;;;6164558;23;20013;-87
2022/01/13 14:08:20;;;;;;;186.90;47.50;;;6.50;99.90;;;;;;6187475;23;20401;-85
2022/01/13 14:10:46;;;;;;;156.00;46.88;;;6.50;99.90;;;;;;6183417;23;20078;-86
2022/01/13 14:13:12;;;;;;;151.90;46.30;;;6.50;99.90;;;;;;6158254;23;20024;-88
2022/01/13 14:15:51;;;;;;;157.85;44.40;;;6.60;99.90;;;;;;6138154;23;20043;-87
2022/01/13 14:18:24;;;;;;;126.50;43.85;;;6.60;99.90;;;;;;6189217;23;20070;-86
2022/01/13 14:20:59;;;;;;;137.93;44.15;;;6.60;99.90;;;;;;6188653;23;20370;-87
2022/01/13 14:27:03;;;;;;;143.50;43.17;;;6.60;99.90;;;;;;6192623;23;20023;-88
2022/01/13 14:30:01;;;;;;;133.32;41.92;;;6.60;99.90;;;;;;6191522;23;20095;-85
2022/01/13 14:32:41;;;;;;;;;;;;;;;;;;;;;
2022/01/13 14:35:53;;;;;;;127.05;43.33;;;6.70;99.90;;;;;;6211410;23;20305;-86
2022/01/13 14:38:45;;;;;;;115.75;40.80;;;6.70;99.90;;;;;;6186464;23;20016;-87
2022/01/13 14:41:33;;;;;;;142.48;44.90;;;6.70;99.90;;;;;;6185799;23;20020;-88
2022/01/13 14:44:19;;;;;;;114.50;42.83;;;6.70;99.90;;;;;;6186399;23;20016;-87
2022/01/13 14:47:17;;;;;;;115.55;43.20;;;6.70;99.90;;;;;;6209943;23;20062;-86
2022/01/13 14:49:50;;;;;;;107.72;41.58;;;6.70;99.90;;;;;;6082990;23;20016;-89
2022/01/13 14:52:16;;;;;;;;;;;6.70;99.90;;;;;;6211189;23;20012;-87
2022/01/13 14:54:41;;;;;;;110.70;41.10;;;6.70;99.90;;;;;;6188643;23;19942;-90
2022/01/13 14:57:25;;;;;;;104.20;40.42;;;6.70;99.90;;;;;;6163111;23;20475;-86
2022/01/13 15:00:08;;;;;;;102.80;39.53;;;6.70;99.90;;;;;;6185808;23;20050;-87